Time;durP1;ratioP1;P1;durP2;ratioP2;P2;SDS_P1;SDS_P2;PMS_P1;PMS_P2;Temp;Humidity;BMP_temperature;BMP_pressure;BME280_temperature;BME280_humidity;BME280_pressure;Samples;Min_cycle;Max_cycle;Signal;HPM_P1;HPM_P2
2019/11/06 00:00:30;;;;;;;3.9;2.9;;;;;;;;;;;;;
2019/11/06 00:02:54;;;;;;;4.6;2.8;;;;;;;;;;;;;
2019/11/06 00:05:19;;;;;;;3.5;2.7;;;;;;;;;;;;;
2019/11/06 00:07:47;;;;;;;3.4;2.9;;;;;;;;;;;;;
2019/11/06 00:10:13;;;;;;;3.8;3;;;;;;;;;;;;;
2019/11/06 00:12:38;;;;;;;3.6;2.9;;;;;;;;;;;;;
2019/11/06 00:15:04;;;;;;;4.9;3.9;;;;;;;;;;;;;
2019/11/06 00:17:29;;;;;;;5.4;4.2;;;;;;;;;;;;;
2019/11/06 00:19:54;;;;;;;4.2;3.4;;;;;;;;;;;;;
2019/11/06 00:22:21;;;;;;;5.9;3.9;;;;;;;;;;;;;
2019/11/06 00:27:11;;;;;;;3.4;3;;;;;;;;;;;;;
2019/11/06 00:29:37;;;;;;;3.2;2.7;;;;;;;;;;;;;
2019/11/06 00:32:02;;;;;;;3.5;2.9;;;;;;;;;;;;;
2019/11/06 00:34:26;;;;;;;4.7;3.3;;;;;;;;;;;;;
2019/11/06 00:36:52;;;;;;;4.4;3.1;;;;;;;;;;;;;
2019/11/06 00:39:18;;;;;;;4.4;3;;;;;;;;;;;;;
2019/11/06 00:41:44;;;;;;;5;3.6;;;;;;;;;;;;;
2019/11/06 00:44:08;;;;;;;4.3;3.3;;;;;;;;;;;;;
2019/11/06 00:46:32;;;;;;;4.1;3.1;;;;;;;;;;;;;
2019/11/06 00:49:00;;;;;;;3.7;3.3;;;;;;;;;;;;;
2019/11/06 00:51:24;;;;;;;3.8;3.3;;;;;;;;;;;;;
2019/11/06 00:53:50;;;;;;;4.9;3.1;;;;;;;;;;;;;
2019/11/06 00:56:14;;;;;;;4.2;3.5;;;;;;;;;;;;;
2019/11/06 00:58:42;;;;;;;3.8;3.1;;;;;;;;;;;;;
2019/11/06 01:01:05;;;;;;;5.1;3;;;;;;;;;;;;;
2019/11/06 01:03:30;;;;;;;3.5;2.6;;;;;;;;;;;;;
2019/11/06 01:06:00;;;;;;;3.3;2.4;;;;;;;;;;;;;
2019/11/06 01:08:22;;;;;;;5.3;3.3;;;;;;;;;;;;;
2019/11/06 01:10:45;;;;;;;4.3;3;;;;;;;;;;;;;
2019/11/06 01:13:11;;;;;;;3.6;2.9;;;;;;;;;;;;;
2019/11/06 01:15:39;;;;;;;4.7;3.3;;;;;;;;;;;;;
2019/11/06 01:18:02;;;;;;;4.3;3.2;;;;;;;;;;;;;
2019/11/06 01:20:28;;;;;;;5.7;3.9;;;;;;;;;;;;;
2019/11/06 01:22:52;;;;;;;6.7;3.9;;;;;;;;;;;;;
2019/11/06 01:25:19;;;;;;;5.1;3.4;;;;;;;;;;;;;
2019/11/06 01:27:45;;;;;;;4.5;3.7;;;;;;;;;;;;;
2019/11/06 01:30:07;;;;;;;5.7;3.8;;;;;;;;;;;;;
2019/11/06 01:32:58;;;;;;;5.6;3.9;;;;;;;;;;;;;
2019/11/06 01:35:02;;;;;;;4.7;3.6;;;;;;;;;;;;;
2019/11/06 01:37:28;;;;;;;4.4;3.4;;;;;;;;;;;;;
2019/11/06 01:39:55;;;;;;;5.2;3.4;;;;;;;;;;;;;
2019/11/06 01:42:20;;;;;;;5.2;3.5;;;;;;;;;;;;;
2019/11/06 01:44:45;;;;;;;5.2;3;;;;;;;;;;;;;
2019/11/06 01:47:17;;;;;;;4.2;3;;;;;;;;;;;;;
2019/11/06 01:49:37;;;;;;;3.5;2.6;;;;;;;;;;;;;
2019/11/06 01:52:03;;;;;;;3.7;2.8;;;;;;;;;;;;;
2019/11/06 01:54:27;;;;;;;2.8;2.3;;;;;;;;;;;;;
2019/11/06 01:56:57;;;;;;;3.5;2.4;;;;;;;;;;;;;
2019/11/06 01:59:20;;;;;;;2.1;1.3;;;;;;;;;;;;;
2019/11/06 02:01:44;;;;;;;1.8;1.4;;;;;;;;;;;;;
2019/11/06 02:04:10;;;;;;;3.2;1.8;;;;;;;;;;;;;
2019/11/06 02:06:35;;;;;;;2.9;1.9;;;;;;;;;;;;;
2019/11/06 02:09:03;;;;;;;2.6;1.8;;;;;;;;;;;;;
2019/11/06 02:11:26;;;;;;;3.1;2.1;;;;;;;;;;;;;
2019/11/06 02:13:56;;;;;;;2.4;2.1;;;;;;;;;;;;;
2019/11/06 02:16:18;;;;;;;2.6;2.1;;;;;;;;;;;;;
2019/11/06 02:18:51;;;;;;;3.1;2.2;;;;;;;;;;;;;
2019/11/06 02:21:17;;;;;;;3.4;2.6;;;;;;;;;;;;;
2019/11/06 02:23:42;;;;;;;3.1;2.4;;;;;;;;;;;;;
2019/11/06 02:26:09;;;;;;;3.8;2.4;;;;;;;;;;;;;
2019/11/06 02:28:35;;;;;;;4;2.8;;;;;;;;;;;;;
2019/11/06 02:31:25;;;;;;;4;2.8;;;;;;;;;;;;;
2019/11/06 02:33:51;;;;;;;4.4;3;;;;;;;;;;;;;
2019/11/06 02:36:23;;;;;;;3.2;2.7;;;;;;;;;;;;;
2019/11/06 02:38:43;;;;;;;3.4;2.9;;;;;;;;;;;;;
2019/11/06 02:41:07;;;;;;;3.2;2.6;;;;;;;;;;;;;
2019/11/06 02:43:41;;;;;;;3.4;2.7;;;;;;;;;;;;;
2019/11/06 02:45:59;;;;;;;3.7;2.8;;;;;;;;;;;;;
2019/11/06 02:48:24;;;;;;;3.4;2.7;;;;;;;;;;;;;
2019/11/06 02:50:57;;;;;;;4.4;3.5;;;;;;;;;;;;;
2019/11/06 02:53:13;;;;;;;7.4;5.5;;;;;;;;;;;;;
2019/11/06 02:55:41;;;;;;;4.9;4.1;;;;;;;;;;;;;
2019/11/06 02:58:06;;;;;;;6.1;4;;;;;;;;;;;;;
2019/11/06 03:00:30;;;;;;;4.9;3.7;;;;;;;;;;;;;
2019/11/06 03:02:55;;;;;;;4.1;2.9;;;;;;;;;;;;;
2019/11/06 03:05:32;;;;;;;5.4;4.1;;;;;;;;;;;;;
2019/11/06 03:07:46;;;;;;;5.2;4.3;;;;;;;;;;;;;
2019/11/06 03:10:12;;;;;;;4.6;4.2;;;;;;;;;;;;;
2019/11/06 03:12:42;;;;;;;5.2;3.7;;;;;;;;;;;;;
2019/11/06 03:15:12;;;;;;;3.9;3.5;;;;;;;;;;;;;
2019/11/06 03:17:37;;;;;;;2.9;2.5;;;;;;;;;;;;;
2019/11/06 03:20:00;;;;;;;3;2.6;;;;;;;;;;;;;
2019/11/06 03:22:25;;;;;;;2.9;2.4;;;;;;;;;;;;;
2019/11/06 03:24:53;;;;;;;3.7;2.3;;;;;;;;;;;;;
2019/11/06 03:27:16;;;;;;;2.7;1.7;;;;;;;;;;;;;
2019/11/06 03:29:40;;;;;;;2.6;1.5;;;;;;;;;;;;;
2019/11/06 03:32:09;;;;;;;2.9;1.5;;;;;;;;;;;;;
2019/11/06 03:34:32;;;;;;;3;1.7;;;;;;;;;;;;;
2019/11/06 03:37:00;;;;;;;1.7;1.4;;;;;;;;;;;;;
2019/11/06 03:39:23;;;;;;;1.5;1.3;;;;;;;;;;;;;
2019/11/06 03:41:47;;;;;;;1.6;1.3;;;;;;;;;;;;;
2019/11/06 03:44:17;;;;;;;1.8;1.3;;;;;;;;;;;;;
2019/11/06 03:46:41;;;;;;;3.3;1.6;;;;;;;;;;;;;
2019/11/06 03:49:13;;;;;;;3.2;1.5;;;;;;;;;;;;;
2019/11/06 03:51:33;;;;;;;5;3.4;;;;;;;;;;;;;
2019/11/06 03:54:00;;;;;;;5;2.6;;;;;;;;;;;;;
2019/11/06 03:56:24;;;;;;;4.4;2.6;;;;;;;;;;;;;
2019/11/06 03:59:22;;;;;;;3.3;2.3;;;;;;;;;;;;;
2019/11/06 04:02:30;;;;;;;5;2.6;;;;;;;3.27;89.36914;923.9852;;;;
2019/11/06 04:05:01;;;;;;;5.5;2.7;;;;;;;3.11;89.76172;924.0346;;;;
2019/11/06 04:07:29;;;;;;;3.9;2.5;;;;;;;2.99;90.3877;924.0555;;;;
2019/11/06 04:09:56;;;;;;;3.9;2.4;;;;;;;2.95;90.47852;924.0761;;;;
2019/11/06 04:12:20;;;;;;;2.6;2.2;;;;;;;2.78;91.39551;924.1337;;;;
2019/11/06 04:14:52;;;;;;;2.1;1.7;;;;;;;2.93;90.94434;924.1252;;;;
2019/11/06 04:17:23;;;;;;;1.9;1.7;;;;;;;2.94;90.63379;924.1561;;;;
2019/11/06 04:19:49;;;;;;;2.7;1.9;;;;;;;2.77;91.59473;924.1957;;;;
2019/11/06 04:22:20;;;;;;;2.4;2.2;;;;;;;2.67;92.3916;924.2335;;;;
2019/11/06 04:24:45;;;;;;;2.4;2.2;;;;;;;2.86;92.0293;924.2658;;;;
2019/11/06 04:27:18;;;;;;;3.2;2.4;;;;;;;2.93;91.17969;924.1912;;;;
2019/11/06 04:30:09;;;;;;;3.4;3;;;;;;;2.97;90.75195;924.2502;;;;
2019/11/06 04:32:31;;;;;;;3.2;2.6;;;;;;;2.88;90.7793;924.2221;;;;
2019/11/06 04:34:59;;;;;;;2;1.8;;;;;;;2.92;90.66211;924.2768;;;;
2019/11/06 04:37:25;;;;;;;2.3;2;;;;;;;2.77;90.65332;924.3261;;;;
2019/11/06 04:39:49;;;;;;;2.7;2.2;;;;;;;2.58;91.69043;924.3033;;;;
2019/11/06 04:42:21;;;;;;;3;2.2;;;;;;;2.75;91.1875;924.329;;;;
2019/11/06 04:45:15;;;;;;;3.5;2.1;;;;;;;2.71;91.5166;924.3032;;;;
2019/11/06 04:47:46;;;;;;;3.5;2.4;;;;;;;2.79;91.21777;924.3972;;;;
2019/11/06 04:50:09;;;;;;;3.8;2.4;;;;;;;2.92;90.56055;924.3452;;;;
2019/11/06 04:52:35;;;;;;;4.5;2.8;;;;;;;2.66;91.24707;924.3669;;;;
2019/11/06 04:55:09;;;;;;;2.8;2;;;;;;;2.75;91.36719;924.3306;;;;
2019/11/06 04:58:12;;;;;;;2.8;2.1;;;;;;;2.67;91.2373;924.3883;;;;
2019/11/06 05:00:41;;;;;;;2.8;2.1;;;;;;;2.77;90.82129;924.4221;;;;
2019/11/06 05:03:06;;;;;;;2.7;1.8;;;;;;;2.73;91.27344;924.4473;;;;
2019/11/06 05:05:33;;;;;;;3.6;1.9;;;;;;;2.71;92.24512;924.4408;;;;
2019/11/06 05:08:03;;;;;;;2.5;2.1;;;;;;;2.71;91.99805;924.4408;;;;
2019/11/06 05:10:32;;;;;;;3.6;2.9;;;;;;;2.77;92.05469;924.5061;;;;
2019/11/06 05:12:57;;;;;;;4.3;3.9;;;;;;;2.68;92.24805;924.5605;;;;
2019/11/06 05:15:32;;;;;;;7.1;4.8;;;;;;;2.72;91.86328;924.5619;;;;
2019/11/06 05:18:00;;;;;;;12.9;7.8;;;;;;;2.79;91.36328;924.5097;;;;
2019/11/06 05:20:25;;;;;;;10.7;7.7;;;;;;;2.65;91.60352;924.5742;;;;
2019/11/06 05:22:54;;;;;;;11.2;7.9;;;;;;;2.65;91.63477;924.5324;;;;
2019/11/06 05:25:21;;;;;;;7;5.8;;;;;;;2.63;91.66699;924.5345;;;;
2019/11/06 05:28:09;;;;;;;6.5;4.6;;;;;;;2.79;91.25098;924.548;;;;
2019/11/06 05:30:17;;;;;;;4.7;3;;;;;;;2.94;90.39844;924.5075;;;;
2019/11/06 05:32:45;;;;;;;5.9;3.4;;;;;;;3.05;89.81738;924.4757;;;;
2019/11/06 05:35:13;;;;;;;3.9;3;;;;;;;3.19;89.11621;924.5114;;;;
2019/11/06 05:37:45;;;;;;;5;3.3;;;;;;;3.16;88.96484;924.4482;;;;
2019/11/06 05:40:09;;;;;;;4.6;2.9;;;;;;;3.21;88.42383;924.5466;;;;
2019/11/06 05:42:36;;;;;;;20.9;13.8;;;;;;;3.14;89.01758;924.5886;;;;
2019/11/06 05:45:02;;;;;;;13.9;8.6;;;;;;;3.14;89.02832;924.6241;;;;
2019/11/06 05:47:36;;;;;;;13.3;9.5;;;;;;;3.08;89.39648;924.6365;;;;
2019/11/06 05:50:07;;;;;;;18.6;14.5;;;;;;;3.12;89.87598;924.6111;;;;
2019/11/06 05:52:33;;;;;;;6.5;5.2;;;;;;;3.17;89.32617;924.6228;;;;
2019/11/06 05:55:01;;;;;;;10.4;9;;;;;;;3.19;89.12793;924.6475;;;;
2019/11/06 05:57:26;;;;;;;13.5;8.5;;;;;;;3.2;88.9834;924.7026;;;;
2019/11/06 05:59:57;;;;;;;9.5;6.9;;;;;;;3.24;88.73535;924.7288;;;;
2019/11/06 06:02:30;;;;;;;6.6;5.7;;;;;;;3.17;88.61914;924.7731;;;;
2019/11/06 06:04:54;;;;;;;7.1;5.1;;;;;;;3.19;88.38867;924.7664;;;;
2019/11/06 06:07:27;;;;;;;4;3.5;;;;;;;3.2;88.34375;924.7507;;;;
2019/11/06 06:09:52;;;;;;;4.3;2.9;;;;;;;3.24;88.29688;924.8044;;;;
2019/11/06 06:12:22;;;;;;;3.6;2.7;;;;;;;3.28;88.11426;924.7916;;;;
2019/11/06 06:14:46;;;;;;;6.8;4.7;;;;;;;3.24;87.76953;924.8436;;;;
2019/11/06 06:17:25;;;;;;;7.3;6.2;;;;;;;3.07;88.55176;924.9869;;;;
2019/11/06 06:19:48;;;;;;;4.1;2.9;;;;;;;2.91;89.58496;925.0455;;;;
2019/11/06 06:22:11;;;;;;;4.7;3.9;;;;;;;2.93;89.73242;925.0764;;;;
2019/11/06 06:24:35;;;;;;;5.7;4.2;;;;;;;2.98;89.29688;925.0325;;;;
2019/11/06 06:27:01;;;;;;;5;3.9;;;;;;;2.91;90.05566;925.0494;;;;
2019/11/06 06:29:31;;;;;;;3.1;2.6;;;;;;;2.89;90.91602;925.1325;;;;
2019/11/06 06:31:55;;;;;;;4.6;2.8;;;;;;;3.09;91.07031;925.2083;;;;
2019/11/06 06:34:24;;;;;;;3.7;3.3;;;;;;;3.18;89.90039;925.2545;;;;
2019/11/06 06:36:48;;;;;;;3.9;2.9;;;;;;;3.32;89.20996;925.2506;;;;
2019/11/06 06:39:14;;;;;;;4;2.1;;;;;;;3.43;89.42383;925.3281;;;;
2019/11/06 06:41:39;;;;;;;7;2;;;;;;;3.47;88.66992;925.3822;;;;
2019/11/06 06:44:04;;;;;;;3.8;3.1;;;;;;;3.55;88.10254;925.4149;;;;
2019/11/06 06:46:31;;;;;;;8.7;4.6;;;;;;;3.61;87.74316;925.4986;;;;
2019/11/06 06:49:00;;;;;;;9.4;4.8;;;;;;;3.75;86.70508;925.514;;;;
2019/11/06 06:51:31;;;;;;;7.1;4.3;;;;;;;3.67;87.28418;925.6348;;;;
2019/11/06 06:53:57;;;;;;;6.8;3.8;;;;;;;3.72;87.02344;925.6552;;;;
2019/11/06 06:56:27;;;;;;;5.2;3.1;;;;;;;3.75;86.69531;925.7147;;;;
2019/11/06 06:58:59;;;;;;;3.5;2.9;;;;;;;3.87;86.68359;925.6937;;;;
2019/11/06 07:01:39;;;;;;;5.4;2.5;;;;;;;3.6;87.125;925.6335;;;;
2019/11/06 07:04:19;;;;;;;5.9;3.2;;;;;;;3.43;88.83984;925.5822;;;;
2019/11/06 07:06:57;;;;;;;7.3;3.8;;;;;;;3.65;88.87598;925.7133;;;;
2019/11/06 07:09:22;;;;;;;7.9;3.7;;;;;;;3.78;88.2168;925.7332;;;;
2019/11/06 07:11:56;;;;;;;7;3.4;;;;;;;3.79;88.68164;925.8066;;;;
2019/11/06 07:14:26;;;;;;;5.3;3.6;;;;;;;4.17;87.28516;925.8297;;;;
2019/11/06 07:16:49;;;;;;;4.8;3.4;;;;;;;4.43;86.93359;925.764;;;;
2019/11/06 07:19:22;;;;;;;6.4;4;;;;;;;4.59;86.30176;925.8928;;;;
2019/11/06 07:21:47;;;;;;;9.2;4.1;;;;;;;4.65;85.76074;925.9103;;;;
2019/11/06 07:24:16;;;;;;;6.6;4.4;;;;;;;4.82;85.24512;925.907;;;;
2019/11/06 07:26:44;;;;;;;6.3;3.3;;;;;;;5.14;83.9082;925.9617;;;;
2019/11/06 07:29:14;;;;;;;5.2;2.6;;;;;;;5.28;82.99121;925.9334;;;;
2019/11/06 07:31:42;;;;;;;3.6;2.1;;;;;;;5.39;82.40137;926.0488;;;;
2019/11/06 07:34:11;;;;;;;4.7;3.2;;;;;;;5.48;81.5498;925.9788;;;;
2019/11/06 07:36:42;;;;;;;8.9;4.9;;;;;;;5.61;81.35938;926.0464;;;;
2019/11/06 07:39:10;;;;;;;8.3;4.1;;;;;;;5.52;82.15625;925.9578;;;;
2019/11/06 07:41:36;;;;;;;6.9;4.1;;;;;;;5.95;81.22168;925.999;;;;
2019/11/06 07:44:09;;;;;;;5.5;3.5;;;;;;;6.42;78.84668;926.05;;;;
2019/11/06 07:46:31;;;;;;;4.9;3.8;;;;;;;6.48;78.7666;926.0826;;;;
2019/11/06 07:48:58;;;;;;;5.3;2.5;;;;;;;6.62;77.85352;926.0457;;;;
2019/11/06 07:51:31;;;;;;;5.8;2.3;;;;;;;6.66;78.10938;926.064;;;;
2019/11/06 07:54:07;;;;;;;4.1;1.7;;;;;;;6.78;77.25;926.1143;;;;
2019/11/06 07:56:33;;;;;;;3.3;1.7;;;;;;;6.87;77.09473;926.0952;;;;
2019/11/06 07:59:05;;;;;;;5;2;;;;;;;6.91;76.8418;926.1222;;;;
2019/11/06 08:04:15;;;;;;;3.9;1.3;;;;;;;6.95;77.19922;926.1175;;;;
2019/11/06 08:06:40;;;;;;;8.2;2.2;;;;;;;7.05;76.58301;926.2202;;;;
2019/11/06 08:09:09;;;;;;;9.2;2.9;;;;;;;6.77;77.14453;926.2361;;;;
2019/11/06 08:12:15;;;;;;;7.2;2.1;;;;;;;6.69;77.5957;926.2634;;;;
2019/11/06 08:14:42;;;;;;;11;3.7;;;;;;;7.03;77.4502;926.2668;;;;
2019/11/06 08:17:07;;;;;;;9.1;3.5;;;;;;;7.28;76.99707;926.2464;;;;
2019/11/06 08:19:38;;;;;;;11.8;3.6;;;;;;;7.39;76.22461;926.1635;;;;
2019/11/06 08:22:03;;;;;;;12.4;3.6;;;;;;;7.48;75.77441;926.2422;;;;
2019/11/06 08:24:33;;;;;;;7.7;3.1;;;;;;;7.16;75.45801;926.2695;;;;
2019/11/06 08:26:59;;;;;;;9.6;3.4;;;;;;;6.95;77.03906;926.332;;;;
2019/11/06 08:29:32;;;;;;;6.3;3.2;;;;;;;6.69;78.23828;926.3647;;;;
2019/11/06 08:32:16;;;;;;;4;1.7;;;;;;;6.56;78.29492;926.3441;;;;
2019/11/06 08:34:49;;;;;;;5.2;1.8;;;;;;;6.64;78.51172;926.2798;;;;
2019/11/06 08:37:19;;;;;;;14.9;2.6;;;;;;;6.67;79.77637;926.3441;;;;
2019/11/06 08:39:51;;;;;;;11;2.7;;;;;;;6.78;79.4209;926.3381;;;;
2019/11/06 08:42:17;;;;;;;12.6;3;;;;;;;6.96;79.02637;926.2679;;;;
2019/11/06 08:44:46;;;;;;;9;2.6;;;;;;;7.08;79.22754;926.3747;;;;
2019/11/06 08:47:14;;;;;;;5.2;3;;;;;;;7.04;78.16699;926.4197;;;;
2019/11/06 08:49:43;;;;;;;10.7;3.9;;;;;;;6.92;78.8252;926.3145;;;;
2019/11/06 08:52:08;;;;;;;18.1;5.6;;;;;;;7.22;79.26465;926.4149;;;;
2019/11/06 08:54:40;;;;;;;18.7;4.3;;;;;;;7.42;76.47949;926.3633;;;;
2019/11/06 08:57:12;;;;;;;20.4;4.3;;;;;;;7.71;77.23535;926.3538;;;;
2019/11/06 08:59:40;;;;;;;10.5;3.4;;;;;;;7.63;76.22266;926.329;;;;
2019/11/06 09:02:07;;;;;;;4.2;2.5;;;;;;;7.28;76.58984;926.3351;;;;
2019/11/06 09:04:42;;;;;;;6.7;2.8;;;;;;;7.39;78.01563;926.3369;;;;
2019/11/06 09:06:59;;;;;;;4.3;1.9;;;;;;;7.38;76.14258;926.3527;;;;
2019/11/06 09:09:27;;;;;;;4.5;1.4;;;;;;;7.61;74.5625;926.3322;;;;
2019/11/06 09:11:56;;;;;;;5.1;1.3;;;;;;;7.46;75.35254;926.346;;;;
2019/11/06 09:14:17;;;;;;;3.8;1.1;;;;;;;7.6;74.84473;926.3644;;;;
2019/11/06 09:17:02;;;;;;;1.4;1.1;;;;;;;7.49;74.07715;926.3714;;;;
2019/11/06 09:19:24;;;;;;;5.9;1.8;;;;;;;7.91;75.09082;926.4444;;;;
2019/11/06 09:21:49;;;;;;;3.9;1.8;;;;;;;7.93;75.86719;926.3683;;;;
2019/11/06 09:24:20;;;;;;;2.1;1.3;;;;;;;8;76.07129;926.4142;;;;
2019/11/06 09:26:53;;;;;;;2.7;1.7;;;;;;;8.2;75.57324;926.4707;;;;
2019/11/06 09:29:26;;;;;;;4.8;1.4;;;;;;;8.08;74.38281;926.4969;;;;
2019/11/06 09:31:50;;;;;;;4.7;2.1;;;;;;;8.14;75.06348;926.5413;;;;
2019/11/06 09:34:20;;;;;;;7.7;2.4;;;;;;;8.25;74.69629;926.5676;;;;
2019/11/06 09:36:46;;;;;;;7.1;2.8;;;;;;;8.43;74.58008;926.5308;;;;
2019/11/06 09:39:18;;;;;;;4;1.6;;;;;;;8.65;75.11816;926.6091;;;;
2019/11/06 09:41:43;;;;;;;2.9;1.1;;;;;;;8.91;74.12891;926.6024;;;;
2019/11/06 09:44:14;;;;;;;1.7;1.1;;;;;;;9.11;73.10449;926.5789;;;;
2019/11/06 09:46:50;;;;;;;3;1.4;;;;;;;9.19;70.83008;926.5809;;;;
2019/11/06 09:49:23;;;;;;;5.7;1.5;;;;;;;8.89;71.24609;926.6119;;;;
2019/11/06 09:52:02;;;;;;;2.3;1.2;;;;;;;8.76;71.99805;926.6216;;;;
2019/11/06 09:54:24;;;;;;;4.9;2.5;;;;;;;8.99;72.8125;926.6298;;;;
2019/11/06 09:56:52;;;;;;;5.8;3.6;;;;;;;9.05;72.29883;926.595;;;;
2019/11/06 09:59:22;;;;;;;2.9;1.6;;;;;;;9.19;71.64844;926.4395;;;;
2019/11/06 10:02:04;;;;;;;1.2;0.9;;;;;;;9.25;71.76465;926.5658;;;;
2019/11/06 10:04:43;;;;;;;1.8;0.9;;;;;;;9.23;69.87012;926.5953;;;;
2019/11/06 10:07:23;;;;;;;2.4;0.9;;;;;;;9.13;68.61328;926.5795;;;;
2019/11/06 10:09:58;;;;;;;2;1;;;;;;;9.37;70.21289;926.5882;;;;
2019/11/06 10:12:27;;;;;;;3.8;1.3;;;;;;;9.06;69.70605;926.5005;;;;
2019/11/06 10:15:01;;;;;;;2.2;1.2;;;;;;;9.1;71.30664;926.4328;;;;
2019/11/06 10:17:24;;;;;;;1.9;1.2;;;;;;;9.32;72.87793;926.4464;;;;
2019/11/06 10:19:57;;;;;;;2.9;1.5;;;;;;;9.36;70.41406;926.4033;;;;
2019/11/06 10:22:31;;;;;;;1.7;1.2;;;;;;;9.39;69.59863;926.411;;;;
2019/11/06 10:24:51;;;;;;;3.1;1.5;;;;;;;9.28;70.68555;926.3695;;;;
2019/11/06 10:27:27;;;;;;;2;1.4;;;;;;;9.27;71.12793;926.3139;;;;
2019/11/06 10:30:00;;;;;;;6.4;1.7;;;;;;;9.45;73.05957;926.3109;;;;
2019/11/06 10:32:29;;;;;;;3;1.4;;;;;;;9.34;69.125;926.3041;;;;
2019/11/06 10:35:11;;;;;;;2.2;1.2;;;;;;;9.25;68.69043;926.2291;;;;
2019/11/06 10:37:35;;;;;;;4.1;1.2;;;;;;;9.12;70.44434;926.2548;;;;
2019/11/06 10:40:00;;;;;;;3.3;1.3;;;;;;;9.06;69.88672;926.2567;;;;
2019/11/06 10:42:34;;;;;;;4.4;1.3;;;;;;;9.15;72.57715;926.2031;;;;
2019/11/06 10:45:15;;;;;;;3;1.7;;;;;;;9.13;71.23145;926.223;;;;
2019/11/06 10:48:22;;;;;;;3.9;1.7;;;;;;;9.21;70.65137;926.2957;;;;
2019/11/06 10:51:11;;;;;;;11.3;1.9;;;;;;;9.17;71.39453;926.2189;;;;
2019/11/06 10:53:32;;;;;;;2.7;1.4;;;;;;;9.34;71.08203;926.3096;;;;
2019/11/06 10:56:04;;;;;;;3.5;1.4;;;;;;;9.51;72.68359;926.2891;;;;
2019/11/06 10:58:29;;;;;;;5.2;1.6;;;;;;;9.6;72.73145;926.3091;;;;
2019/11/06 11:01:14;;;;;;;4.3;1.4;;;;;;;9.7;71.08398;926.3223;;;;
2019/11/06 11:03:37;;;;;;;6.4;1.4;;;;;;;9.74;74.24902;926.3307;;;;
2019/11/06 11:06:08;;;;;;;4.1;1.5;;;;;;;9.89;73.87598;926.3292;;;;
2019/11/06 11:08:35;;;;;;;2.2;1.6;;;;;;;9.87;74.03223;926.3436;;;;
2019/11/06 11:11:06;;;;;;;4.8;1.5;;;;;;;9.87;71.30762;926.288;;;;
2019/11/06 11:14:11;;;;;;;5.1;1.6;;;;;;;9.95;73.52051;926.3748;;;;
2019/11/06 11:16:25;;;;;;;1.6;1.3;;;;;;;9.99;74.58984;926.3625;;;;
2019/11/06 11:19:15;;;;;;;13.3;4.3;;;;;;;10.11;72.5332;926.3786;;;;
2019/11/06 11:21:44;;;;;;;4.8;2;;;;;;;10.35;72.36816;926.4916;;;;
2019/11/06 11:24:19;;;;;;;2.5;1.5;;;;;;;10.48;71.76172;926.4725;;;;
2019/11/06 11:26:45;;;;;;;2.6;1.4;;;;;;;10.55;70.51758;926.4512;;;;
2019/11/06 11:29:17;;;;;;;3.1;1.4;;;;;;;10.67;69.23438;926.4949;;;;
2019/11/06 11:32:01;;;;;;;2.1;1.3;;;;;;;10.7;68.8623;926.4619;;;;
2019/11/06 11:35:14;;;;;;;2.3;1.5;;;;;;;10.82;67.99023;926.4363;;;;
2019/11/06 11:37:31;;;;;;;5.7;1.6;;;;;;;10.98;65.4668;926.4487;;;;
2019/11/06 11:39:54;;;;;;;2.2;1.4;;;;;;;10.88;66.49316;926.4395;;;;
2019/11/06 11:42:30;;;;;;;2.6;1.4;;;;;;;10.94;66.08984;926.4125;;;;
2019/11/06 11:45:04;;;;;;;3.6;1.4;;;;;;;10.95;66.83398;926.4069;;;;
2019/11/06 11:47:28;;;;;;;3.2;1.6;;;;;;;11.01;66.94531;926.3799;;;;
2019/11/06 11:49:59;;;;;;;2.2;1.3;;;;;;;11.14;65.99609;926.4001;;;;
2019/11/06 11:52:30;;;;;;;1.5;1.1;;;;;;;11.28;64.6084;926.4274;;;;
2019/11/06 11:54:56;;;;;;;2.3;1.4;;;;;;;11.34;65.05176;926.4347;;;;
2019/11/06 11:57:29;;;;;;;2.5;1.2;;;;;;;11.39;64.88867;926.3814;;;;
2019/11/06 11:59:58;;;;;;;2.2;1.3;;;;;;;11.38;65.07031;926.3647;;;;
2019/11/06 12:02:27;;;;;;;1;0.9;;;;;;;11.47;62.80664;926.4172;;;;
2019/11/06 12:04:53;;;;;;;1.7;1.2;;;;;;;11.18;63.7373;926.3502;;;;
2019/11/06 12:07:27;;;;;;;3.1;1.1;;;;;;;11.19;63.91016;926.2935;;;;
2019/11/06 12:09:59;;;;;;;2.3;1.2;;;;;;;11.24;63.2207;926.3226;;;;
2019/11/06 12:12:23;;;;;;;2.3;1.1;;;;;;;11.27;63.31543;926.3351;;;;
2019/11/06 12:15:05;;;;;;;2;1.2;;;;;;;11.32;64.00879;926.3114;;;;
2019/11/06 12:17:39;;;;;;;1.5;1.1;;;;;;;11.41;63.16406;926.3269;;;;
2019/11/06 12:20:11;;;;;;;2.2;1.2;;;;;;;11.56;61.44629;926.2526;;;;
2019/11/06 12:22:38;;;;;;;2.4;1.2;;;;;;;11.64;61.19336;926.2503;;;;
2019/11/06 12:25:18;;;;;;;1.6;1;;;;;;;11.7;61.38574;926.2725;;;;
2019/11/06 12:28:01;;;;;;;1.6;0.8;;;;;;;11.81;59.46582;926.2433;;;;
2019/11/06 12:30:33;;;;;;;2.6;1.1;;;;;;;11.92;61.54199;926.258;;;;
2019/11/06 12:33:01;;;;;;;2.2;0.8;;;;;;;11.93;60.00879;926.3024;;;;
2019/11/06 12:35:24;;;;;;;7.4;1.6;;;;;;;11.86;61.80957;926.2867;;;;
2019/11/06 12:37:50;;;;;;;4.4;1.8;;;;;;;11.79;59.85156;926.2779;;;;
2019/11/06 12:40:30;;;;;;;6.6;2.5;;;;;;;11.62;62.81641;926.3574;;;;
2019/11/06 12:42:55;;;;;;;5.9;2.7;;;;;;;11.18;62.95996;926.2833;;;;
2019/11/06 12:45:21;;;;;;;4;2.4;;;;;;;11.1;65.85156;926.3186;;;;
2019/11/06 12:48:21;;;;;;;4.6;2.4;;;;;;;11.08;66.38477;926.2845;;;;
2019/11/06 12:50:49;;;;;;;8.7;2.7;;;;;;;11.28;65.37598;926.2816;;;;
2019/11/06 12:53:18;;;;;;;13.2;2.8;;;;;;;11.2;69.69727;926.3006;;;;
2019/11/06 12:55:51;;;;;;;9.7;1.9;;;;;;;10.95;68.54785;926.1942;;;;
2019/11/06 12:58:20;;;;;;;6;1.5;;;;;;;10.81;66.9043;926.2881;;;;
2019/11/06 13:00:45;;;;;;;4.7;2.3;;;;;;;10.8;67.64551;926.2584;;;;
2019/11/06 13:03:16;;;;;;;10;2.2;;;;;;;10.97;70.68848;926.2282;;;;
2019/11/06 13:05:44;;;;;;;3.6;1.6;;;;;;;10.71;65.79297;926.2014;;;;
2019/11/06 13:08:22;;;;;;;3.9;1.8;;;;;;;10.75;68.68848;926.2439;;;;
2019/11/06 13:10:56;;;;;;;3.7;2;;;;;;;10.95;71.09668;926.277;;;;
2019/11/06 13:13:22;;;;;;;3.9;2;;;;;;;11.08;69.20801;926.2679;;;;
2019/11/06 13:15:55;;;;;;;4.8;2;;;;;;;11.05;70.41602;926.3519;;;;
2019/11/06 13:18:21;;;;;;;4.8;2.1;;;;;;;11.09;70.88086;926.2757;;;;
2019/11/06 13:20:54;;;;;;;4.6;2.4;;;;;;;11.18;67.75098;926.265;;;;
2019/11/06 13:23:27;;;;;;;4.3;1.9;;;;;;;11.29;68.41992;926.2727;;;;
2019/11/06 13:26:02;;;;;;;1.9;1.2;;;;;;;11.24;69.14258;926.2296;;;;
2019/11/06 13:28:27;;;;;;;4.6;1.3;;;;;;;11.36;70.75293;926.2629;;;;
2019/11/06 13:30:56;;;;;;;2.5;1.1;;;;;;;11.22;71.02734;926.17;;;;
2019/11/06 13:33:32;;;;;;;6.5;1.3;;;;;;;11.2;70.67969;926.2536;;;;
2019/11/06 13:36:02;;;;;;;10.6;1.4;;;;;;;11.06;70.65918;926.2051;;;;
2019/11/06 13:38:39;;;;;;;3.1;1.7;;;;;;;11.02;69.14258;926.2606;;;;
2019/11/06 13:41:07;;;;;;;5.3;1.9;;;;;;;10.94;69.5293;926.3209;;;;
2019/11/06 13:43:40;;;;;;;3.6;1.6;;;;;;;10.9;71.83203;926.315;;;;
2019/11/06 13:46:05;;;;;;;4.3;1.5;;;;;;;10.83;71.18066;926.3358;;;;
2019/11/06 13:48:35;;;;;;;4.2;1.1;;;;;;;10.74;71.64551;926.358;;;;
2019/11/06 13:51:03;;;;;;;3.6;1.7;;;;;;;10.7;70.48535;926.387;;;;
2019/11/06 13:53:53;;;;;;;6.4;2.4;;;;;;;10.59;69.78125;926.3242;;;;
2019/11/06 13:56:02;;;;;;;10.9;3.1;;;;;;;10.64;69.33301;926.3931;;;;
2019/11/06 13:58:31;;;;;;;6.7;3;;;;;;;10.7;70.82813;926.3917;;;;
2019/11/06 14:01:01;;;;;;;4.1;2.2;;;;;;;10.73;70.99219;926.3389;;;;
2019/11/06 14:03:36;;;;;;;4.8;2.4;;;;;;;10.79;71.55176;926.3892;;;;
2019/11/06 14:06:05;;;;;;;7.1;2.7;;;;;;;10.81;69.875;926.3978;;;;
2019/11/06 14:08:32;;;;;;;5.3;2.1;;;;;;;10.82;70.20605;926.351;;;;
2019/11/06 14:11:14;;;;;;;6.3;2.8;;;;;;;10.87;72.88867;926.3791;;;;
2019/11/06 14:13:38;;;;;;;12;7.9;;;;;;;10.79;74.57715;926.3924;;;;
2019/11/06 14:16:19;;;;;;;12.1;7.6;;;;;;;10.67;75.4707;926.3857;;;;
2019/11/06 14:18:53;;;;;;;13.8;7.1;;;;;;;10.68;77.07129;926.3817;;;;
2019/11/06 14:21:26;;;;;;;8.6;4.4;;;;;;;10.63;77.64551;926.4005;;;;
2019/11/06 14:23:56;;;;;;;6;2.2;;;;;;;10.45;77.45313;926.4194;;;;
2019/11/06 14:26:22;;;;;;;7;2.7;;;;;;;10.51;76.91504;926.4276;;;;
2019/11/06 14:28:56;;;;;;;9.1;3.8;;;;;;;10.64;75.69336;926.4235;;;;
2019/11/06 14:31:28;;;;;;;16.2;3;;;;;;;10.72;77.57031;926.4417;;;;
2019/11/06 14:34:08;;;;;;;12.4;2.9;;;;;;;10.72;76.48535;926.4202;;;;
2019/11/06 14:36:48;;;;;;;8.7;4;;;;;;;10.74;74.98047;926.4224;;;;
2019/11/06 14:39:21;;;;;;;14.5;6.8;;;;;;;10.79;74.9082;926.445;;;;
2019/11/06 14:41:50;;;;;;;22.5;4.8;;;;;;;10.84;76.27734;926.4233;;;;
2019/11/06 14:44:19;;;;;;;8;1.8;;;;;;;10.83;75.87598;926.4822;;;;
2019/11/06 14:46:51;;;;;;;6.8;2;;;;;;;10.76;76.05762;926.493;;;;
2019/11/06 14:49:19;;;;;;;4.4;1.4;;;;;;;10.79;76.33691;926.5173;;;;
2019/11/06 14:51:50;;;;;;;5.4;1.6;;;;;;;10.8;75.01465;926.5396;;;;
2019/11/06 14:54:22;;;;;;;9.7;2.4;;;;;;;10.77;76.59668;926.5144;;;;
2019/11/06 14:57:16;;;;;;;11.1;2.5;;;;;;;10.71;76.72168;926.4211;;;;
2019/11/06 14:59:48;;;;;;;5.4;2;;;;;;;10.67;75.53906;926.4669;;;;
2019/11/06 15:02:13;;;;;;;6.4;2.3;;;;;;;10.7;75.42969;926.5096;;;;
2019/11/06 15:04:44;;;;;;;5.8;3.5;;;;;;;10.73;75.42285;926.5881;;;;
2019/11/06 15:07:09;;;;;;;6.2;4.2;;;;;;;10.54;75.99512;926.6216;;;;
2019/11/06 15:09:52;;;;;;;9.5;4.2;;;;;;;10.29;76.24902;926.5853;;;;
2019/11/06 15:12:18;;;;;;;4.9;3.1;;;;;;;10.08;76.22363;926.6238;;;;
2019/11/06 15:14:52;;;;;;;16.8;9.9;;;;;;;10.06;76.36914;926.6287;;;;
2019/11/06 15:17:35;;;;;;;29.8;15.6;;;;;;;10.04;77.75586;926.6647;;;;
2019/11/06 15:19:51;;;;;;;11.7;8.2;;;;;;;10;77.83984;926.6281;;;;
2019/11/06 15:22:25;;;;;;;11.5;6.9;;;;;;;9.99;77.96387;926.6297;;;;
2019/11/06 15:24:59;;;;;;;18.9;3.8;;;;;;;9.95;79.06152;926.6205;;;;
2019/11/06 15:29:56;;;;;;;13.8;7.4;;;;;;;9.69;79.09375;926.6292;;;;
2019/11/06 15:32:28;;;;;;;25.6;14.8;;;;;;;9.62;78.24902;926.6392;;;;
2019/11/06 15:35:01;;;;;;;35.5;22.6;;;;;;;9.62;78.30762;926.6844;;;;
2019/11/06 15:37:24;;;;;;;31.4;16.5;;;;;;;9.58;78.46973;926.647;;;;
2019/11/06 15:39:55;;;;;;;29.8;16.9;;;;;;;9.48;78.62402;926.6888;;;;
2019/11/06 15:42:20;;;;;;;12.1;6.9;;;;;;;9.3;79.33203;926.7094;;;;
2019/11/06 15:45:05;;;;;;;31.2;16.3;;;;;;;9.22;79.68066;926.6994;;;;
2019/11/06 15:47:49;;;;;;;50.2;25.8;;;;;;;9.21;79.84863;926.7431;;;;
2019/11/06 15:52:51;;;;;;;29.1;12.3;;;;;;;9.19;81.16406;926.8049;;;;
2019/11/06 15:55:20;;;;;;;34;17.8;;;;;;;9.2;80.46289;926.7905;;;;
2019/11/06 15:57:47;;;;;;;75;42.4;;;;;;;9.2;79.69824;926.7858;;;;
2019/11/06 16:00:15;;;;;;;83.8;45.7;;;;;;;9.06;79.93555;926.8816;;;;
2019/11/06 16:02:42;;;;;;;75.7;44.1;;;;;;;8.96;80.26953;926.9253;;;;
2019/11/06 16:05:20;;;;;;;43.5;19.9;;;;;;;8.95;81.29199;926.9459;;;;
2019/11/06 16:07:49;;;;;;;19.3;7.5;;;;;;;8.97;81.27441;926.9586;;;;
2019/11/06 16:10:24;;;;;;;7.8;3.3;;;;;;;8.87;81.41113;926.9445;;;;